createdAt,value
2022-10-05T00:00:05.642Z,995.8
2022-10-05T00:01:07.331Z,995.8
2022-10-05T00:02:09.175Z,995.82
2022-10-05T00:03:10.812Z,995.8
2022-10-05T00:04:12.626Z,995.84
2022-10-05T00:05:14.315Z,995.81
2022-10-05T00:06:16.045Z,995.83
2022-10-05T00:07:17.785Z,995.83
2022-10-05T00:08:19.478Z,995.82
2022-10-05T00:09:21.211Z,995.78
2022-10-05T00:10:22.957Z,995.74
2022-10-05T00:11:24.684Z,995.74
2022-10-05T00:12:26.451Z,995.71
2022-10-05T00:13:28.156Z,995.72
2022-10-05T00:14:29.934Z,995.76
2022-10-05T00:15:31.627Z,995.66
2022-10-05T00:16:33.539Z,995.71
2022-10-05T00:17:35.104Z,995.72
2022-10-05T00:18:36.871Z,995.63
2022-10-05T00:19:38.569Z,995.67
2022-10-05T00:20:40.327Z,995.65
2022-10-05T00:21:42.033Z,995.63
2022-10-05T00:22:43.769Z,995.54
2022-10-05T00:23:45.542Z,995.61
2022-10-05T00:24:47.244Z,995.59
2022-10-05T00:25:48.999Z,995.56
2022-10-05T00:26:54.194Z,995.57
2022-10-05T00:27:52.532Z,995.6
2022-10-05T00:28:54.183Z,995.53
2022-10-05T00:29:55.921Z,995.56
2022-10-05T00:30:57.643Z,995.55
2022-10-05T00:31:59.512Z,995.57
2022-10-05T00:33:01.173Z,995.56
2022-10-05T00:34:02.851Z,995.56
2022-10-05T00:35:04.581Z,995.51
2022-10-05T00:36:06.317Z,995.48
2022-10-05T00:37:08.062Z,995.5
2022-10-05T00:38:09.798Z,995.48
2022-10-05T00:39:11.562Z,995.53
2022-10-05T00:40:13.262Z,995.52
2022-10-05T00:41:15.001Z,995.5
2022-10-05T00:42:16.764Z,995.49
2022-10-05T00:43:18.462Z,995.44
2022-10-05T00:44:20.198Z,995.49
2022-10-05T00:45:21.923Z,995.43
2022-10-05T00:46:23.801Z,995.43
2022-10-05T00:47:25.403Z,995.47
2022-10-05T00:48:27.149Z,995.43
2022-10-05T00:49:28.871Z,995.37
2022-10-05T00:50:30.615Z,995.42
2022-10-05T00:51:32.343Z,995.44
2022-10-05T00:52:34.091Z,995.48
2022-10-05T00:53:35.839Z,995.42
2022-10-05T00:54:37.579Z,995.5
2022-10-05T00:55:39.274Z,995.48
2022-10-05T00:56:41.017Z,995.53
2022-10-05T00:57:42.762Z,995.49
2022-10-05T00:58:44.478Z,995.49
2022-10-05T00:59:46.221Z,995.49
2022-10-05T01:00:48.032Z,995.53
2022-10-05T01:01:49.773Z,995.49
2022-10-05T01:02:51.569Z,995.52
2022-10-05T01:03:53.204Z,995.44
2022-10-05T01:04:54.891Z,995.49
2022-10-05T01:05:56.666Z,995.48
2022-10-05T01:06:58.373Z,995.55
2022-10-05T01:08:00.123Z,995.53
2022-10-05T01:09:01.853Z,995.52
2022-10-05T01:10:03.564Z,995.54
2022-10-05T01:11:05.332Z,995.5
2022-10-05T01:12:07.069Z,995.49
2022-10-05T01:13:08.805Z,995.5
2022-10-05T01:14:10.500Z,995.52
2022-10-05T01:15:12.274Z,995.48
2022-10-05T01:16:14.164Z,995.49
2022-10-05T01:17:15.742Z,995.43
2022-10-05T01:18:17.477Z,995.46
2022-10-05T01:19:19.170Z,995.48
2022-10-05T01:20:20.942Z,995.49
2022-10-05T01:21:22.651Z,995.44
2022-10-05T01:22:24.415Z,995.41
2022-10-05T01:23:26.120Z,995.47
2022-10-05T01:24:27.838Z,995.49
2022-10-05T01:25:29.625Z,995.48
2022-10-05T01:26:31.315Z,995.49
2022-10-05T01:27:33.096Z,995.54
2022-10-05T01:28:34.876Z,995.56
2022-10-05T01:29:36.530Z,995.56
2022-10-05T01:30:38.249Z,995.57
2022-10-05T01:31:40.095Z,995.6
2022-10-05T01:32:41.762Z,995.57
2022-10-05T01:33:43.456Z,995.58
2022-10-05T01:34:45.208Z,995.58
2022-10-05T01:35:46.956Z,995.6
2022-10-05T01:36:49.051Z,995.53
2022-10-05T01:37:50.400Z,995.56
2022-10-05T01:38:52.176Z,995.55
2022-10-05T01:39:53.898Z,995.47
2022-10-05T01:40:55.641Z,995.55
2022-10-05T01:41:57.380Z,995.53
2022-10-05T01:42:59.072Z,995.54
2022-10-05T01:44:00.835Z,995.56
2022-10-05T01:45:02.550Z,995.54
2022-10-05T01:46:04.363Z,995.54
2022-10-05T01:47:06.057Z,995.47
2022-10-05T01:48:07.788Z,995.38
2022-10-05T01:49:09.478Z,995.4
2022-10-05T01:50:11.262Z,995.34
2022-10-05T01:51:12.968Z,995.33
2022-10-05T01:52:14.698Z,995.36
2022-10-05T01:53:16.455Z,995.34
2022-10-05T01:54:18.185Z,995.27
2022-10-05T01:55:19.914Z,995.29
2022-10-05T01:56:21.616Z,995.23
2022-10-05T01:57:23.391Z,995.17
2022-10-05T01:58:25.126Z,995.2
2022-10-05T01:59:26.850Z,995.19
2022-10-05T02:00:28.589Z,995.11
2022-10-05T02:01:30.386Z,995.06
2022-10-05T02:02:32.151Z,995.05
2022-10-05T02:03:33.802Z,995.06
2022-10-05T02:05:00.464Z,995.03
2022-10-05T02:05:37.268Z,994.96
2022-10-05T02:06:38.995Z,995.01
2022-10-05T02:07:40.701Z,995.03
2022-10-05T02:08:42.463Z,994.93
2022-10-05T02:09:44.167Z,994.98
2022-10-05T02:10:45.907Z,994.97
2022-10-05T02:11:47.630Z,994.98
2022-10-05T02:12:49.372Z,995.03
2022-10-05T02:13:51.103Z,995.02
2022-10-05T02:14:52.845Z,995.02
2022-10-05T02:15:54.690Z,994.98
2022-10-05T02:16:56.335Z,994.97
2022-10-05T02:17:58.073Z,995.05
2022-10-05T02:18:59.759Z,995.02
2022-10-05T02:20:01.507Z,995.03
2022-10-05T02:21:03.271Z,995.09
2022-10-05T02:22:05.000Z,995.03
2022-10-05T02:23:06.750Z,995
2022-10-05T02:24:08.485Z,995
2022-10-05T02:25:10.225Z,994.96
2022-10-05T02:26:11.951Z,994.91
2022-10-05T02:27:13.658Z,994.93
2022-10-05T02:28:15.477Z,994.9
2022-10-05T02:29:17.161Z,994.86
2022-10-05T02:30:18.869Z,994.89
2022-10-05T02:31:20.746Z,994.86
2022-10-05T02:32:22.333Z,994.84
2022-10-05T02:33:24.075Z,994.81
2022-10-05T02:34:25.808Z,994.79
2022-10-05T02:35:27.530Z,994.78
2022-10-05T02:36:29.274Z,994.76
2022-10-05T02:37:31.032Z,994.73
2022-10-05T02:38:32.766Z,994.74
2022-10-05T02:39:34.466Z,994.72
2022-10-05T02:40:36.236Z,994.72
2022-10-05T02:41:37.970Z,994.74
2022-10-05T02:42:39.666Z,994.72
2022-10-05T02:43:41.416Z,994.72
2022-10-05T02:44:43.175Z,994.66
2022-10-05T02:45:44.970Z,994.67
2022-10-05T02:46:47.001Z,994.65
2022-10-05T02:47:48.356Z,994.7
2022-10-05T02:48:50.092Z,994.72
2022-10-05T02:49:51.820Z,994.74
2022-10-05T02:50:53.543Z,994.71
2022-10-05T02:51:55.325Z,994.77
2022-10-05T02:52:57.061Z,994.74
2022-10-05T02:53:58.771Z,994.8
2022-10-05T02:55:00.497Z,994.8
2022-10-05T02:56:02.235Z,994.79
2022-10-05T02:57:03.974Z,994.78
2022-10-05T02:58:05.736Z,994.81
2022-10-05T02:59:07.540Z,994.81
2022-10-05T03:00:09.204Z,994.81
2022-10-05T03:01:10.984Z,994.84
2022-10-05T03:02:12.728Z,994.77
2022-10-05T03:03:14.372Z,994.83
2022-10-05T03:04:16.131Z,994.77
2022-10-05T03:05:17.883Z,994.79
2022-10-05T03:06:19.580Z,994.76
2022-10-05T03:07:21.339Z,994.75
2022-10-05T03:08:23.038Z,994.75
2022-10-05T03:09:24.771Z,994.81
2022-10-05T03:10:26.552Z,994.74
2022-10-05T03:11:28.243Z,994.82
2022-10-05T03:12:30.050Z,994.84
2022-10-05T03:13:31.727Z,994.82
2022-10-05T03:14:33.452Z,994.84
2022-10-05T03:15:35.220Z,994.88
2022-10-05T03:16:36.958Z,994.92
2022-10-05T03:17:38.693Z,994.94
2022-10-05T03:18:40.424Z,994.98
2022-10-05T03:19:42.174Z,994.95
2022-10-05T03:20:43.897Z,994.94
2022-10-05T03:21:45.606Z,994.95
2022-10-05T03:22:47.334Z,994.99
2022-10-05T03:23:49.100Z,994.94
2022-10-05T03:24:50.798Z,994.95
2022-10-05T03:25:52.542Z,994.92
2022-10-05T03:26:54.270Z,994.95
2022-10-05T03:27:56.089Z,995
2022-10-05T03:28:57.787Z,995.01
2022-10-05T03:29:59.482Z,995
2022-10-05T03:31:01.264Z,995.07
2022-10-05T03:32:02.962Z,995.08
2022-10-05T03:33:04.780Z,995.07
2022-10-05T03:34:06.472Z,995.11
2022-10-05T03:35:08.163Z,995.14
2022-10-05T03:36:09.890Z,995.18
2022-10-05T03:37:11.622Z,995.16
2022-10-05T03:38:13.354Z,995.12
2022-10-05T03:39:15.098Z,995.18
2022-10-05T03:40:16.864Z,995.17
2022-10-05T03:41:18.550Z,995.21
2022-10-05T03:42:20.293Z,995.19
2022-10-05T03:43:22.106Z,995.14
2022-10-05T03:44:23.770Z,995.1
2022-10-05T03:45:25.502Z,995.15
2022-10-05T03:46:27.353Z,995.09
2022-10-05T03:47:29.013Z,995.06
2022-10-05T03:48:30.738Z,995.05
2022-10-05T03:49:32.469Z,994.99
2022-10-05T03:50:34.210Z,995.02
2022-10-05T03:51:35.907Z,994.96
2022-10-05T03:52:37.639Z,994.94
2022-10-05T03:53:39.399Z,995
2022-10-05T03:54:41.150Z,994.99
2022-10-05T03:55:42.873Z,995.04
2022-10-05T03:56:44.968Z,994.96
2022-10-05T03:57:46.308Z,995.04
2022-10-05T03:58:48.053Z,995.02
2022-10-05T03:59:49.782Z,995.04
2022-10-05T04:00:51.549Z,995.1
2022-10-05T04:01:53.359Z,995.04
2022-10-05T04:02:55.061Z,995.1
2022-10-05T04:03:56.759Z,995.1
2022-10-05T04:05:03.398Z,995.11
2022-10-05T04:06:05.124Z,995.12
2022-10-05T04:07:06.875Z,995.09
2022-10-05T04:08:08.639Z,995.11
2022-10-05T04:09:10.334Z,995.1
2022-10-05T04:10:12.091Z,995.09
2022-10-05T04:11:13.799Z,995.08
2022-10-05T04:12:15.568Z,995.05
2022-10-05T04:13:17.269Z,995.02
2022-10-05T04:14:19.037Z,995.11
2022-10-05T04:15:20.741Z,995.09
2022-10-05T04:16:22.540Z,995.03
2022-10-05T04:17:24.212Z,995.07
2022-10-05T04:18:25.978Z,995.09
2022-10-05T04:19:27.682Z,995.1
2022-10-05T04:20:29.407Z,995.15
2022-10-05T04:21:31.148Z,995.15
2022-10-05T04:22:32.872Z,995.11
2022-10-05T04:23:34.611Z,995.1
2022-10-05T04:24:36.440Z,995.05
2022-10-05T04:25:38.137Z,995.01
2022-10-05T04:26:39.814Z,995.03
2022-10-05T04:27:41.596Z,995
2022-10-05T04:28:43.397Z,995.02
2022-10-05T04:29:45.019Z,995.01
2022-10-05T04:30:46.796Z,995.05
2022-10-05T04:31:48.533Z,995
2022-10-05T04:32:50.229Z,995.03
2022-10-05T04:33:51.961Z,995.08
2022-10-05T04:34:53.699Z,995.06
2022-10-05T04:35:55.439Z,995.09
2022-10-05T04:36:57.166Z,995.06
2022-10-05T04:37:58.941Z,995.11
2022-10-05T04:39:00.652Z,995.08
2022-10-05T04:40:02.367Z,995.12
2022-10-05T04:41:04.104Z,995.08
2022-10-05T04:42:05.867Z,995.09
2022-10-05T04:43:07.581Z,995.15
2022-10-05T04:44:09.308Z,995.08
2022-10-05T04:45:11.034Z,995.13
2022-10-05T04:46:12.838Z,995.08
2022-10-05T04:47:14.508Z,995.13
2022-10-05T04:48:16.274Z,995.11
2022-10-05T04:49:18.013Z,995.18
2022-10-05T04:50:19.718Z,995.16
2022-10-05T04:51:21.450Z,995.14
2022-10-05T04:52:23.196Z,995.18
2022-10-05T04:53:24.910Z,995.16
2022-10-05T04:54:26.653Z,995.09
2022-10-05T04:55:28.423Z,995.15
2022-10-05T04:56:30.159Z,995.18
2022-10-05T04:57:31.854Z,995.17
2022-10-05T04:58:33.583Z,995.16
2022-10-05T04:59:35.343Z,995.2
2022-10-05T05:00:37.105Z,995.2
2022-10-05T05:01:38.785Z,995.21
2022-10-05T05:02:40.520Z,995.24
2022-10-05T05:03:42.338Z,995.19
2022-10-05T05:04:47.135Z,995.17
2022-10-05T05:06:12.126Z,995.19
2022-10-05T05:06:47.794Z,995.25
2022-10-05T05:07:49.187Z,995.22
2022-10-05T05:08:50.944Z,995.21
2022-10-05T05:09:52.668Z,995.24
2022-10-05T05:10:54.441Z,995.24
2022-10-05T05:11:56.186Z,995.18
2022-10-05T05:12:57.872Z,995.18
2022-10-05T05:13:59.597Z,995.21
2022-10-05T05:15:01.354Z,995.16
2022-10-05T05:16:03.149Z,995.17
2022-10-05T05:17:06.763Z,995.18
2022-10-05T05:18:06.570Z,995.15
2022-10-05T05:19:08.321Z,995.2
2022-10-05T05:20:10.006Z,995.22
2022-10-05T05:21:11.750Z,995.22
2022-10-05T05:22:13.499Z,995.24
2022-10-05T05:23:15.262Z,995.23
2022-10-05T05:24:16.947Z,995.22
2022-10-05T05:25:18.687Z,995.23
2022-10-05T05:26:20.435Z,995.25
2022-10-05T05:27:22.257Z,995.26
2022-10-05T05:28:23.943Z,995.24
2022-10-05T05:29:25.655Z,995.24
2022-10-05T05:30:27.358Z,995.2
2022-10-05T05:31:29.173Z,995.28
2022-10-05T05:32:30.867Z,995.24
2022-10-05T05:33:32.562Z,995.23
2022-10-05T05:34:34.292Z,995.23
2022-10-05T05:35:36.023Z,995.28
2022-10-05T05:36:37.756Z,995.25
2022-10-05T05:37:39.496Z,995.27
2022-10-05T05:38:41.227Z,995.24
2022-10-05T05:39:42.950Z,995.29
2022-10-05T05:40:44.729Z,995.31
2022-10-05T05:41:46.435Z,995.29
2022-10-05T05:42:48.180Z,995.27
2022-10-05T05:43:49.896Z,995.32
2022-10-05T05:44:51.633Z,995.29
2022-10-05T05:45:53.367Z,995.25
2022-10-05T05:47:04.462Z,995.31
2022-10-05T05:47:56.879Z,995.29
2022-10-05T05:48:58.582Z,995.21
2022-10-05T05:50:05.767Z,995.27
2022-10-05T05:51:02.051Z,995.29
2022-10-05T05:52:03.775Z,995.28
2022-10-05T05:53:05.508Z,995.28
2022-10-05T05:54:07.285Z,995.31
2022-10-05T05:55:08.983Z,995.33
2022-10-05T05:56:10.756Z,995.22
2022-10-05T05:57:12.567Z,995.29
2022-10-05T05:58:14.183Z,995.24
2022-10-05T05:59:15.960Z,995.24
2022-10-05T06:00:17.672Z,995.3
2022-10-05T06:01:32.333Z,995.26
2022-10-05T06:02:21.275Z,995.28
2022-10-05T06:03:23.015Z,995.33
2022-10-05T06:04:24.598Z,995.33
2022-10-05T06:05:26.324Z,995.34
2022-10-05T06:06:28.075Z,995.37
2022-10-05T06:07:30.743Z,995.4
2022-10-05T06:08:31.562Z,995.36
2022-10-05T06:09:33.262Z,995.32
2022-10-05T06:10:35.002Z,995.4
2022-10-05T06:11:36.770Z,995.4
2022-10-05T06:12:38.471Z,995.39
2022-10-05T06:13:40.201Z,995.35
2022-10-05T06:14:41.935Z,995.38
2022-10-05T06:15:43.674Z,995.37
2022-10-05T06:16:45.917Z,995.41
2022-10-05T06:17:47.144Z,995.43
2022-10-05T06:18:48.926Z,995.43
2022-10-05T06:19:50.623Z,995.39
2022-10-05T06:20:52.349Z,995.41
2022-10-05T06:21:54.085Z,995.41
2022-10-05T06:22:55.812Z,995.43
2022-10-05T06:23:57.542Z,995.42
2022-10-05T06:24:59.274Z,995.39
2022-10-05T06:26:01.020Z,995.42
2022-10-05T06:27:02.759Z,995.3
2022-10-05T06:28:04.494Z,995.4
2022-10-05T06:29:06.219Z,995.4
2022-10-05T06:30:07.958Z,995.44
2022-10-05T06:31:09.737Z,995.39
2022-10-05T06:32:11.519Z,995.44
2022-10-05T06:33:13.171Z,995.41
2022-10-05T06:34:14.919Z,995.31
2022-10-05T06:35:16.666Z,995.38
2022-10-05T06:36:18.358Z,995.37
2022-10-05T06:37:20.111Z,995.3
2022-10-05T06:38:21.835Z,995.39
2022-10-05T06:39:23.564Z,995.4
2022-10-05T06:40:25.294Z,995.38
2022-10-05T06:41:27.072Z,995.4
2022-10-05T06:42:28.815Z,995.33
2022-10-05T06:43:30.507Z,995.38
2022-10-05T06:44:32.237Z,995.35
2022-10-05T06:45:34.023Z,995.37
2022-10-05T06:46:35.744Z,995.39
2022-10-05T06:47:37.460Z,995.38
2022-10-05T06:48:39.173Z,995.37
2022-10-05T06:49:40.945Z,995.37
2022-10-05T06:50:42.657Z,995.37
2022-10-05T06:51:44.374Z,995.39
2022-10-05T06:52:46.123Z,995.38
2022-10-05T06:53:47.862Z,995.41
2022-10-05T06:54:49.591Z,995.35
2022-10-05T06:55:51.353Z,995.38
2022-10-05T06:56:53.053Z,995.37
2022-10-05T06:57:54.790Z,995.33
2022-10-05T06:58:56.515Z,995.34
2022-10-05T06:59:58.282Z,995.32
2022-10-05T07:01:00.141Z,995.37
2022-10-05T07:02:01.898Z,995.34
2022-10-05T07:03:03.467Z,995.38
2022-10-05T07:04:05.208Z,995.35
2022-10-05T07:05:06.931Z,995.39
2022-10-05T07:06:08.654Z,995.35
2022-10-05T07:07:10.395Z,995.33
2022-10-05T07:08:12.145Z,995.37
2022-10-05T07:09:13.845Z,995.36
2022-10-05T07:10:15.569Z,995.33
2022-10-05T07:11:17.291Z,995.36
2022-10-05T07:12:19.049Z,995.42
2022-10-05T07:13:20.749Z,995.4
2022-10-05T07:14:22.494Z,995.42
2022-10-05T07:15:24.223Z,995.39
2022-10-05T07:16:26.067Z,995.39
2022-10-05T07:17:27.703Z,995.36
2022-10-05T07:18:29.477Z,995.39
2022-10-05T07:19:31.174Z,995.41
2022-10-05T07:20:32.950Z,995.39
2022-10-05T07:21:34.650Z,995.4
2022-10-05T07:22:36.386Z,995.42
2022-10-05T07:23:38.100Z,995.46
2022-10-05T07:24:39.846Z,995.47
2022-10-05T07:25:41.608Z,995.41
2022-10-05T07:26:43.439Z,995.42
2022-10-05T07:27:49.467Z,995.41
2022-10-05T07:28:46.775Z,995.42
2022-10-05T07:29:48.539Z,995.46
2022-10-05T07:30:50.282Z,995.42
2022-10-05T07:31:51.980Z,995.5
2022-10-05T07:32:53.721Z,995.51
2022-10-05T07:33:55.449Z,995.43
2022-10-05T07:34:57.225Z,995.51
2022-10-05T07:35:58.917Z,995.51
2022-10-05T07:37:00.689Z,995.48
2022-10-05T07:38:02.387Z,995.48
2022-10-05T07:39:04.123Z,995.47
2022-10-05T07:40:05.867Z,995.46
2022-10-05T07:41:07.649Z,995.48
2022-10-05T07:42:09.366Z,995.46
2022-10-05T07:43:11.063Z,995.48
2022-10-05T07:44:13.108Z,995.53
2022-10-05T07:45:14.535Z,995.49
2022-10-05T07:46:16.356Z,995.53
2022-10-05T07:47:18.025Z,995.48
2022-10-05T07:48:19.741Z,995.5
2022-10-05T07:49:21.489Z,995.49
2022-10-05T07:50:23.261Z,995.56
2022-10-05T07:51:24.948Z,995.49
2022-10-05T07:52:29.102Z,995.5
2022-10-05T07:53:28.417Z,995.47
2022-10-05T07:54:30.156Z,995.49
2022-10-05T07:55:31.901Z,995.47
2022-10-05T07:56:33.623Z,995.51
2022-10-05T07:57:35.343Z,995.46
2022-10-05T07:58:37.120Z,995.54
2022-10-05T07:59:38.866Z,995.53
2022-10-05T08:00:40.573Z,995.56
2022-10-05T08:01:42.398Z,995.56
2022-10-05T08:02:44.140Z,995.54
2022-10-05T08:03:45.803Z,995.54
2022-10-05T08:04:47.516Z,995.5
2022-10-05T08:05:49.241Z,995.55
2022-10-05T08:06:51.278Z,995.53
2022-10-05T08:07:52.713Z,995.54
2022-10-05T08:08:54.448Z,995.53
2022-10-05T08:09:56.165Z,995.51
2022-10-05T08:10:57.928Z,995.5
2022-10-05T08:11:59.689Z,995.45
2022-10-05T08:13:01.387Z,995.51
2022-10-05T08:14:03.116Z,995.5
2022-10-05T08:15:04.851Z,995.48
2022-10-05T08:16:06.673Z,995.51
2022-10-05T08:17:08.318Z,995.46
2022-10-05T08:18:10.049Z,995.5
2022-10-05T08:19:11.790Z,995.44
2022-10-05T08:20:13.564Z,995.46
2022-10-05T08:21:15.266Z,995.41
2022-10-05T08:22:17.004Z,995.43
2022-10-05T08:23:18.724Z,995.44
2022-10-05T08:24:20.460Z,995.36
2022-10-05T08:25:22.199Z,995.36
2022-10-05T08:26:23.959Z,995.34
2022-10-05T08:27:25.667Z,995.35
2022-10-05T08:28:27.441Z,995.31
2022-10-05T08:29:29.140Z,995.35
2022-10-05T08:30:30.874Z,995.34
2022-10-05T08:31:32.694Z,995.37
2022-10-05T08:32:34.348Z,995.35
2022-10-05T08:33:36.076Z,995.36
2022-10-05T08:34:37.821Z,995.4
2022-10-05T08:35:39.553Z,995.39
2022-10-05T08:36:41.302Z,995.42
2022-10-05T08:37:43.047Z,995.41
2022-10-05T08:38:44.753Z,995.38
2022-10-05T08:39:46.525Z,995.41
2022-10-05T08:40:48.223Z,995.37
2022-10-05T08:41:50.119Z,995.33
2022-10-05T08:42:51.730Z,995.3
2022-10-05T08:43:53.426Z,995.3
2022-10-05T08:44:55.157Z,995.3
2022-10-05T08:45:57.097Z,995.26
2022-10-05T08:46:58.658Z,995.24
2022-10-05T08:48:00.367Z,995.27
2022-10-05T08:49:02.121Z,995.28
2022-10-05T08:50:03.842Z,995.29
2022-10-05T08:51:05.581Z,995.26
2022-10-05T08:52:07.319Z,995.32
2022-10-05T08:53:09.075Z,995.29
2022-10-05T08:54:10.757Z,995.3
2022-10-05T08:55:12.492Z,995.33
2022-10-05T08:56:19.048Z,995.32
2022-10-05T08:57:15.959Z,995.32
2022-10-05T08:58:17.674Z,995.3
2022-10-05T08:59:19.407Z,995.34
2022-10-05T09:00:21.213Z,995.29
2022-10-05T09:01:22.952Z,995.37
2022-10-05T09:02:24.721Z,995.36
2022-10-05T09:03:28.946Z,995.33
2022-10-05T09:04:28.097Z,995.29
2022-10-05T09:05:29.825Z,995.34
2022-10-05T09:06:31.559Z,995.29
2022-10-05T09:07:36.338Z,995.25
2022-10-05T09:08:35.056Z,995.29
2022-10-05T09:09:36.756Z,995.29
2022-10-05T09:10:38.579Z,995.28
2022-10-05T09:11:40.268Z,995.24
2022-10-05T09:12:42.030Z,995.28
2022-10-05T09:13:43.777Z,995.27
2022-10-05T09:14:52.621Z,995.26
2022-10-05T09:15:47.464Z,995.21
2022-10-05T09:16:48.980Z,995.18
2022-10-05T09:17:50.693Z,995.15
2022-10-05T09:18:52.466Z,995.11
2022-10-05T09:19:54.161Z,995.08
2022-10-05T09:20:55.889Z,995.12
2022-10-05T09:21:57.660Z,995.13
2022-10-05T09:22:59.377Z,995.1
2022-10-05T09:24:01.135Z,995.1
2022-10-05T09:25:02.838Z,995.19
2022-10-05T09:26:04.566Z,995.16
2022-10-05T09:27:06.331Z,995.16
2022-10-05T09:28:08.145Z,995.22
2022-10-05T09:29:09.815Z,995.23
2022-10-05T09:30:11.515Z,995.21
2022-10-05T09:31:13.904Z,995.23
2022-10-05T09:32:16.585Z,995.28
2022-10-05T09:33:16.725Z,995.3
2022-10-05T09:34:18.495Z,995.3
2022-10-05T09:35:20.225Z,995.28
2022-10-05T09:36:21.959Z,995.23
2022-10-05T09:37:23.652Z,995.24
2022-10-05T09:38:25.427Z,995.25
2022-10-05T09:39:27.150Z,995.22
2022-10-05T09:40:28.907Z,995.21
2022-10-05T09:41:30.623Z,995.18
2022-10-05T09:42:32.425Z,995.17
2022-10-05T09:43:34.069Z,995.15
2022-10-05T09:44:35.800Z,995.14
2022-10-05T09:45:37.581Z,995.12
2022-10-05T09:46:39.392Z,995.09
2022-10-05T09:47:41.012Z,995.06
2022-10-05T09:48:42.730Z,995.1
2022-10-05T09:49:44.505Z,995.04
2022-10-05T09:50:46.209Z,995.12
2022-10-05T09:51:48.402Z,995.07
2022-10-05T09:52:49.675Z,995.12
2022-10-05T09:53:51.417Z,995.11
2022-10-05T09:54:53.192Z,995.13
2022-10-05T09:55:54.894Z,995.08
2022-10-05T09:56:56.642Z,995.11
2022-10-05T09:57:58.350Z,995.1
2022-10-05T09:59:00.095Z,995.1
2022-10-05T10:00:01.905Z,995.05
2022-10-05T10:01:15.481Z,995.06
2022-10-05T10:02:05.355Z,995.02
2022-10-05T10:03:07.087Z,994.95
2022-10-05T10:04:08.769Z,994.94
2022-10-05T10:05:10.540Z,994.93
2022-10-05T10:06:12.262Z,994.96
2022-10-05T10:07:13.973Z,994.96
2022-10-05T10:08:15.707Z,994.94
2022-10-05T10:09:17.470Z,994.94
2022-10-05T10:10:19.213Z,994.95
2022-10-05T10:11:20.873Z,994.97
2022-10-05T10:12:22.650Z,994.97
2022-10-05T10:13:24.322Z,995.02
2022-10-05T10:14:26.088Z,995.02
2022-10-05T10:15:27.855Z,994.98
2022-10-05T10:16:29.531Z,994.99
2022-10-05T10:17:31.271Z,994.98
2022-10-05T10:18:33.046Z,994.99
2022-10-05T10:19:34.849Z,994.94
2022-10-05T10:20:36.475Z,994.93
2022-10-05T10:21:38.207Z,994.9
2022-10-05T10:22:43.078Z,994.88
2022-10-05T10:23:41.681Z,994.96
2022-10-05T10:24:43.410Z,994.99
2022-10-05T10:25:45.147Z,994.92
2022-10-05T10:26:46.890Z,994.96
2022-10-05T10:27:52.324Z,994.99
2022-10-05T10:28:50.355Z,994.99
2022-10-05T10:29:52.096Z,994.99
2022-10-05T10:30:53.931Z,994.96
2022-10-05T10:31:55.561Z,994.95
2022-10-05T10:32:57.283Z,994.93
2022-10-05T10:33:59.013Z,994.88
2022-10-05T10:35:00.787Z,994.96
2022-10-05T10:36:06.093Z,994.92
2022-10-05T10:37:04.218Z,994.95
2022-10-05T10:38:06.015Z,994.95
2022-10-05T10:39:07.682Z,994.93
2022-10-05T10:40:09.407Z,994.94
2022-10-05T10:41:11.137Z,994.96
2022-10-05T10:42:12.866Z,994.93
2022-10-05T10:43:14.611Z,994.92
2022-10-05T10:44:16.346Z,994.93
2022-10-05T10:45:18.075Z,994.97
2022-10-05T10:46:19.864Z,994.94
2022-10-05T10:47:21.549Z,994.93
2022-10-05T10:48:23.276Z,994.91
2022-10-05T10:49:25.021Z,994.93
2022-10-05T10:50:26.737Z,994.93
2022-10-05T10:51:28.482Z,994.92
2022-10-05T10:52:30.237Z,994.98
2022-10-05T10:53:31.964Z,994.95
2022-10-05T10:54:33.688Z,994.9
2022-10-05T10:55:35.434Z,994.91
2022-10-05T10:56:37.149Z,994.81
2022-10-05T10:57:38.889Z,994.84
2022-10-05T10:58:40.625Z,994.85
2022-10-05T10:59:42.370Z,994.86
2022-10-05T11:00:44.123Z,994.84
2022-10-05T11:01:46.440Z,994.81
2022-10-05T11:02:47.605Z,994.82
2022-10-05T11:03:49.299Z,994.82
2022-10-05T11:04:51.057Z,994.76
2022-10-05T11:05:52.780Z,994.79
2022-10-05T11:06:54.518Z,994.76
2022-10-05T11:07:56.240Z,994.82
2022-10-05T11:08:57.981Z,994.79
2022-10-05T11:09:59.720Z,994.81
2022-10-05T11:11:01.446Z,994.77
2022-10-05T11:12:03.195Z,994.73
2022-10-05T11:13:04.912Z,994.68
2022-10-05T11:14:06.648Z,994.72
2022-10-05T11:15:08.404Z,994.7
2022-10-05T11:16:11.627Z,994.68
2022-10-05T11:17:11.852Z,994.66
2022-10-05T11:18:13.596Z,994.63
2022-10-05T11:19:15.333Z,994.64
2022-10-05T11:20:17.063Z,994.68
2022-10-05T11:21:18.799Z,994.59
2022-10-05T11:22:20.536Z,994.54
2022-10-05T11:23:22.262Z,994.57
2022-10-05T11:24:24.005Z,994.57
2022-10-05T11:25:25.735Z,994.54
2022-10-05T11:26:27.476Z,994.47
2022-10-05T11:27:29.206Z,994.49
2022-10-05T11:28:30.979Z,994.51
2022-10-05T11:29:32.687Z,994.5
2022-10-05T11:30:34.419Z,994.5
2022-10-05T11:31:36.187Z,994.51
2022-10-05T11:32:37.921Z,994.53
2022-10-05T11:33:39.611Z,994.51
2022-10-05T11:34:41.405Z,994.54
2022-10-05T11:35:43.095Z,994.5
2022-10-05T11:36:44.822Z,994.54
2022-10-05T11:37:46.597Z,994.5
2022-10-05T11:38:48.302Z,994.52
2022-10-05T11:39:50.020Z,994.61
2022-10-05T11:40:51.774Z,994.51
2022-10-05T11:41:53.501Z,994.53
2022-10-05T11:42:55.249Z,994.47
2022-10-05T11:43:56.971Z,994.49
2022-10-05T11:44:58.712Z,994.58
2022-10-05T11:46:00.471Z,994.57
2022-10-05T11:47:02.187Z,994.53
2022-10-05T11:48:03.916Z,994.51
2022-10-05T11:49:05.659Z,994.49
2022-10-05T11:50:07.374Z,994.52
2022-10-05T11:51:09.125Z,994.46
2022-10-05T11:52:10.847Z,994.44
2022-10-05T11:53:12.590Z,994.46
2022-10-05T11:54:14.355Z,994.38
2022-10-05T11:55:16.057Z,994.46
2022-10-05T11:56:17.821Z,994.41
2022-10-05T11:57:19.520Z,994.39
2022-10-05T11:58:21.271Z,994.41
2022-10-05T11:59:22.989Z,994.35
2022-10-05T12:00:24.777Z,994.35
2022-10-05T12:01:26.479Z,994.35
2022-10-05T12:02:28.257Z,994.35
2022-10-05T12:03:30.100Z,994.35
2022-10-05T12:04:31.674Z,994.39
2022-10-05T12:05:33.537Z,994.36
2022-10-05T12:06:35.136Z,994.33
2022-10-05T12:07:36.878Z,994.34
2022-10-05T12:08:38.616Z,994.33
2022-10-05T12:09:40.469Z,994.28
2022-10-05T12:10:42.082Z,994.32
2022-10-05T12:11:43.818Z,994.32
2022-10-05T12:12:45.552Z,994.27
2022-10-05T12:13:47.293Z,994.28
2022-10-05T12:14:49.025Z,994.32
2022-10-05T12:15:50.811Z,994.28
2022-10-05T12:16:52.494Z,994.21
2022-10-05T12:17:54.228Z,994.25
2022-10-05T12:18:55.960Z,994.26
2022-10-05T12:19:57.700Z,994.27
2022-10-05T12:20:59.442Z,994.22
2022-10-05T12:22:01.159Z,994.26
2022-10-05T12:23:02.906Z,994.21
2022-10-05T12:24:04.641Z,994.16
2022-10-05T12:25:06.386Z,994.22
2022-10-05T12:26:08.105Z,994.21
2022-10-05T12:27:09.844Z,994.19
2022-10-05T12:28:11.608Z,994.15
2022-10-05T12:29:13.469Z,994.16
2022-10-05T12:30:15.057Z,994.21
2022-10-05T12:31:16.829Z,994.17
2022-10-05T12:32:18.524Z,994.15
2022-10-05T12:33:20.230Z,994.09
2022-10-05T12:34:21.960Z,994.12
2022-10-05T12:35:36.503Z,994.1
2022-10-05T12:36:31.930Z,994.12
2022-10-05T12:37:27.156Z,994.19
2022-10-05T12:38:28.949Z,994.12
2022-10-05T12:39:30.626Z,994.09
2022-10-05T12:40:32.405Z,994.09
2022-10-05T12:41:34.451Z,994.06
2022-10-05T12:42:40.843Z,994.08
2022-10-05T12:43:37.555Z,993.98
2022-10-05T12:44:39.291Z,994.01
2022-10-05T12:45:41.145Z,994.02
2022-10-05T12:46:42.797Z,994.02
2022-10-05T12:47:44.506Z,994.01
2022-10-05T12:48:46.229Z,993.96
2022-10-05T12:49:47.968Z,993.98
2022-10-05T12:50:49.705Z,993.96
2022-10-05T12:51:51.443Z,994.02
2022-10-05T12:52:53.175Z,993.94